Time;durP1;ratioP1;P1;durP2;ratioP2;P2;SDS_P1;SDS_P2;PMS_P1;PMS_P2;Temp;Humidity;BMP_temperature;BMP_pressure;BME280_temperature;BME280_humidity;BME280_pressure;Samples;Min_cycle;Max_cycle;Signal;HPM_P1;HPM_P2
2021/12/02 00:17:03;;;;;;;1.20;1.20;;;;;;;;;;5411467;23;20220;31
2021/12/02 00:22:19;;;;;;;1.10;1.10;;;;;;;;;;4872515;29;20060;-71
2021/12/02 00:24:47;;;;;;;1.15;1.15;;;;;;;;;;4872458;29;20147;-72
2021/12/02 00:27:15;;;;;;;1.23;1.15;;;;;;;;;;4887034;29;20055;-72
2021/12/02 00:29:46;;;;;;;1.88;1.10;;;;;;;;;;4871433;29;20068;-72
2021/12/02 00:32:14;;;;;;;1.30;1.20;;;;;;;;;;4876144;29;20110;-73
2021/12/02 00:34:46;;;;;;;2.13;1.30;;;;;;;;;;4871167;29;20132;-73
2021/12/02 00:37:14;;;;;;;1.58;1.10;;;;;;;;;;4872628;29;20052;-73
2021/12/02 00:39:41;;;;;;;1.05;1.00;;;;;;;;;;4873170;29;20517;-73
2021/12/02 00:42:09;;;;;;;1.30;1.30;;;;;;;;;;4873146;29;20084;-73
2021/12/02 00:44:38;;;;;;;1.27;1.05;;;;;;;;;;4876858;29;20049;-73
2021/12/02 00:47:07;;;;;;;2.22;1.40;;;;;;;;;;4870723;29;20041;-72
2021/12/02 00:49:34;;;;;;;1.10;1.10;;;;;;;;;;4874180;29;20053;-73
2021/12/02 00:52:02;;;;;;;1.35;1.15;;;;;;;;;;4873062;29;20057;-73
2021/12/02 00:54:30;;;;;;;1.10;1.10;;;;;;;;;;4872960;29;20045;-73
2021/12/02 00:56:58;;;;;;;1.50;1.40;;;;;;;;;;4872966;29;20167;-72
2021/12/02 00:59:28;;;;;;;1.20;1.20;;;;;;;;;;4872239;29;20403;-73
2021/12/02 01:01:55;;;;;;;1.77;1.67;;;;;;;;;;4871342;29;20041;-73
2021/12/02 01:04:24;;;;;;;1.20;1.10;;;;;;;;;;4877016;29;20061;-73
2021/12/02 01:06:52;;;;;;;1.60;1.50;;;;;;;;;;4873293;29;20057;-73
2021/12/02 01:09:20;;;;;;;1.65;1.40;;;;;;;;;;4872820;29;20049;-73
2021/12/02 01:11:47;;;;;;;1.00;1.00;;;;;;;;;;4878144;29;20136;-73
2021/12/02 01:14:15;;;;;;;1.52;1.00;;;;;;;;;;4874515;29;20169;-73
2021/12/02 01:16:42;;;;;;;1.20;1.20;;;;;;;;;;4874430;29;20490;-74
2021/12/02 01:19:10;;;;;;;1.00;1.00;;;;;;;;;;4874606;29;20037;-73
2021/12/02 01:21:39;;;;;;;1.35;1.25;;;;;;;;;;4876189;29;20131;-74
2021/12/02 01:24:07;;;;;;;3.03;1.30;;;;;;;;;;4874638;29;20479;-73
2021/12/02 01:26:35;;;;;;;1.10;1.00;;;;;;;;;;4879098;29;20532;-73
2021/12/02 01:29:04;;;;;;;1.02;0.80;;;;;;;;;;4883293;29;20048;-73
2021/12/02 01:31:33;;;;;;;0.70;0.70;;;;;;;;;;4874333;29;20045;-73
2021/12/02 01:34:02;;;;;;;0.80;0.80;;;;;;;;;;4877815;29;20152;-73
2021/12/02 01:36:32;;;;;;;1.08;0.70;;;;;;;;;;4881495;29;20049;-73
2021/12/02 01:39:00;;;;;;;1.48;0.70;;;;;;;;;;4873936;29;20474;-74
2021/12/02 01:41:27;;;;;;;0.70;0.68;;;;;;;;;;4859201;29;20041;-73
2021/12/02 01:43:55;;;;;;;0.82;0.82;;;;;;;;;;4894359;23;20128;-77
2021/12/02 01:46:23;;;;;;;0.70;0.70;;;;;;;;;;4969870;28;20137;-76
2021/12/02 01:49:01;;;;;;;0.75;0.70;;;;;;;;;;4991380;28;20046;-77
2021/12/02 01:51:28;;;;;;;0.75;0.75;;;;;;;;;;4975479;28;20043;-77
2021/12/02 01:54:09;;;;;;;0.70;0.70;;;;;;;;;;4990391;28;20109;-77
2021/12/02 01:56:47;;;;;;;0.60;0.60;;;;;;;;;;4991961;28;20502;-77
2021/12/02 01:59:18;;;;;;;0.68;0.60;;;;;;;;;;4984367;28;20153;-74
2021/12/02 02:01:47;;;;;;;1.20;0.73;;;;;;;;;;4968207;28;20527;-77
2021/12/02 02:04:15;;;;;;;0.57;0.57;;;;;;;;;;4969047;28;20070;-76
2021/12/02 02:06:54;;;;;;;0.60;0.60;;;;;;;;;;4958716;28;20154;-76
2021/12/02 02:09:23;;;;;;;0.40;0.40;;;;;;;;;;4972797;28;20043;-77
2021/12/02 02:11:51;;;;;;;0.40;0.40;;;;;;;;;;4987683;28;20109;-76
2021/12/02 02:14:19;;;;;;;0.50;0.50;;;;;;;;;;4976055;28;20050;-76
2021/12/02 05:31:25;;;;;;;1.50;1.40;;;;;;;;;;5007885;28;20034;-84
2021/12/02 05:33:55;;;;;;;3.55;1.40;;;;;;;;;;5003038;28;20046;-84
2021/12/02 05:36:22;;;;;;;1.40;1.10;;;;;;;;;;5009940;28;20145;-86
2021/12/02 05:38:50;;;;;;;1.95;1.00;;;;;;;;;;5006702;28;20049;-85
2021/12/02 05:41:17;;;;;;;0.80;0.80;;;;;;;;;;5003828;28;20129;-84
2021/12/02 05:43:45;;;;;;;1.75;0.90;;;;;;;;;;4997631;28;20041;-86
2021/12/02 05:46:12;;;;;;;2.20;1.23;;;;;;;;;;4984733;28;20049;-85
2021/12/02 05:48:40;;;;;;;0.90;0.90;;;;;;;;;;4991354;28;20125;-85
2021/12/02 05:51:07;;;;;;;1.58;1.27;;;;;;;;;;4986054;28;20060;-87
2021/12/02 05:53:35;;;;;;;1.45;1.13;;;;;;;;;;5002343;28;20048;-85
2021/12/02 05:56:02;;;;;;;1.40;1.30;;;;;;;;;;5004033;28;20428;-85
2021/12/02 05:58:29;;;;;;;0.80;0.80;;;;;;;;;;5003578;28;20598;-85
2021/12/02 06:00:57;;;;;;;1.10;1.00;;;;;;;;;;4983226;28;20229;-86
2021/12/02 06:03:24;;;;;;;0.80;0.80;;;;;;;;;;5016596;23;20051;-77
2021/12/02 06:05:56;;;;;;;;;;;;;;;;;;5004747;28;20051;-78
2021/12/02 06:08:23;;;;;;;2.25;1.80;;;;;;;;;;4986823;28;20012;-77
2021/12/02 06:10:51;;;;;;;2.67;1.83;;;;;;;;;;4980192;28;20051;-76
2021/12/02 06:13:18;;;;;;;1.00;1.00;;;;;;;;;;4986367;28;20074;-75
2021/12/02 06:15:46;;;;;;;1.42;1.00;;;;;;;;;;4950478;28;20365;-76
2021/12/02 06:18:14;;;;;;;1.13;1.02;;;;;;;;;;4974986;28;20113;-78
2021/12/02 06:20:41;;;;;;;1.25;1.15;;;;;;;;;;4981788;28;20045;-77
2021/12/02 06:23:09;;;;;;;2.30;1.42;;;;;;;;;;4973850;28;20034;-79
2021/12/02 06:28:05;;;;;;;1.65;1.33;;;;;;;;;;4981228;28;20116;-77
2021/12/02 06:30:33;;;;;;;5.78;3.58;;;;;;;;;;4952761;28;20432;-78
2021/12/02 06:33:00;;;;;;;7.85;7.05;;;;;;;;;;4987299;28;20034;-76
2021/12/02 06:35:28;;;;;;;8.30;7.47;;;;;;;;;;4986302;28;20050;-76
2021/12/02 06:37:56;;;;;;;6.82;6.15;;;;;;;;;;4974025;28;20035;-78
2021/12/02 06:40:24;;;;;;;6.28;5.30;;;;;;;;;;4975008;28;20440;-77
2021/12/02 06:42:51;;;;;;;6.20;5.60;;;;;;;;;;4988695;28;20422;-76
2021/12/02 06:45:19;;;;;;;5.47;4.88;;;;;;;;;;4976057;28;20088;-80
2021/12/02 06:47:48;;;;;;;7.47;6.57;;;;;;;;;;4985288;28;20042;-78
2021/12/02 06:50:18;;;;;;;5.72;5.15;;;;;;;;;;4988376;28;20151;-76
2021/12/02 06:53:10;;;;;;;5.93;5.22;;;;;;;;;;4980038;28;20533;-76
2021/12/02 06:55:38;;;;;;;9.07;5.30;;;;;;;;;;4959351;28;20471;-78
2021/12/02 06:58:06;;;;;;;5.07;4.57;;;;;;;;;;4972130;28;20466;-80
2021/12/02 07:00:37;;;;;;;5.82;5.32;;;;;;;;;;4975089;28;20401;-76
2021/12/02 07:03:15;;;;;;;5.38;4.25;;;;;;;;;;4973887;28;20123;-77
2021/12/02 07:05:44;;;;;;;4.72;3.60;;;;;;;;;;4982567;28;20042;-76
2021/12/02 07:08:11;;;;;;;4.90;4.20;;;;;;;;;;4983167;28;20153;-76
2021/12/02 07:10:40;;;;;;;4.63;4.30;;;;;;;;;;4988477;28;20085;-78
2021/12/02 07:13:08;;;;;;;4.68;3.50;;;;;;;;;;4989069;28;20073;-77
2021/12/02 07:15:42;;;;;;;5.30;3.80;;;;;;;;;;4978475;28;20059;-79
2021/12/02 07:18:13;;;;;;;4.57;4.18;;;;;;;;;;4968679;28;20495;-76
2021/12/02 07:20:41;;;;;;;5.28;4.35;;;;;;;;;;4986823;28;20061;-78
2021/12/02 07:23:09;;;;;;;4.55;4.15;;;;;;;;;;4988250;28;20050;-79
2021/12/02 07:25:40;;;;;;;5.35;4.55;;;;;;;;;;4979366;28;20579;-77
2021/12/02 07:28:11;;;;;;;5.90;4.53;;;;;;;;;;4987295;28;20046;-79
2021/12/02 07:30:39;;;;;;;6.40;4.47;;;;;;;;;;4980826;28;20133;-76
2021/12/02 07:33:08;;;;;;;4.55;4.13;;;;;;;;;;4999526;28;20159;-79
2021/12/02 07:35:36;;;;;;;3.67;3.38;;;;;;;;;;4981991;28;20097;-77
2021/12/02 07:38:04;;;;;;;4.10;3.15;;;;;;;;;;4975228;28;20050;-79
2021/12/02 07:40:36;;;;;;;2.87;2.60;;;;;;;;;;4982138;28;20053;-77
2021/12/02 07:43:04;;;;;;;3.40;3.10;;;;;;;;;;4982567;28;20109;-75
2021/12/02 07:45:34;;;;;;;5.28;3.65;;;;;;;;;;4975890;28;20172;-76
2021/12/02 07:48:04;;;;;;;3.60;3.30;;;;;;;;;;4986302;28;20464;-75
2021/12/02 07:50:31;;;;;;;3.55;3.22;;;;;;;;;;4977014;28;20527;-77
2021/12/02 07:53:00;;;;;;;7.53;5.50;;;;;;;;;;4986933;28;20420;-76
2021/12/02 07:55:29;;;;;;;3.80;3.40;;;;;;;;;;4983053;28;20049;-75
2021/12/02 07:57:56;;;;;;;4.53;3.40;;;;;;;;;;4968478;28;20039;-75
2021/12/02 08:00:26;;;;;;;5.63;3.13;;;;;;;;;;4975538;28;20042;-75
2021/12/02 08:02:54;;;;;;;2.00;1.90;;;;;;;;;;4983954;28;20176;-76
2021/12/02 08:05:23;;;;;;;3.55;1.65;;;;;;;;;;4976613;28;20097;-76
2021/12/02 08:07:51;;;;;;;3.60;1.80;;;;;;;;;;4973246;28;20075;-76
2021/12/02 08:10:19;;;;;;;2.38;1.67;;;;;;;;;;4977211;28;20070;-76
2021/12/02 08:12:48;;;;;;;2.35;1.40;;;;;;;;;;4987352;28;20036;-78
2021/12/02 08:15:17;;;;;;;2.45;1.70;;;;;;;;;;4984818;28;20062;-75
2021/12/02 08:17:44;;;;;;;2.60;1.45;;;;;;;;;;4971387;28;20324;-76
2021/12/02 08:20:12;;;;;;;1.52;1.35;;;;;;;;;;4972329;28;20495;-75
2021/12/02 08:22:40;;;;;;;3.35;1.30;;;;;;;;;;4966347;28;20043;-76
2021/12/02 08:25:08;;;;;;;4.00;1.45;;;;;;;;;;4968217;28;20137;-79
2021/12/02 08:27:35;;;;;;;2.00;1.90;;;;;;;;;;4972075;28;20166;-78
2021/12/02 08:30:04;;;;;;;2.55;1.33;;;;;;;;;;4956536;28;20565;-77
2021/12/02 08:32:35;;;;;;;2.42;1.52;;;;;;;;;;4972718;28;20310;-77
2021/12/02 08:35:02;;;;;;;1.40;1.30;;;;;;;;;;4975514;28;20093;-76
2021/12/02 08:37:34;;;;;;;1.60;1.50;;;;;;;;;;4984313;28;20133;-77
2021/12/02 08:40:02;;;;;;;2.40;1.88;;;;;;;;;;4952557;28;20050;-79
2021/12/02 08:42:32;;;;;;;1.70;1.60;;;;;;;;;;4984811;28;20121;-75
2021/12/02 08:45:00;;;;;;;3.33;1.52;;;;;;;;;;4986639;28;20046;-75
2021/12/02 08:47:28;;;;;;;2.40;1.65;;;;;;;;;;4971027;28;20630;-75
2021/12/02 08:49:57;;;;;;;1.63;1.50;;;;;;;;;;4982689;28;20072;-75
2021/12/02 08:52:26;;;;;;;1.55;1.20;;;;;;;;;;4981285;28;20125;-78
2021/12/02 08:54:54;;;;;;;1.10;1.00;;;;;;;;;;4977504;28;20043;-77
2021/12/02 08:57:41;;;;;;;2.25;1.17;;;;;;;;;;4979854;28;20058;-78
2021/12/02 09:00:10;;;;;;;1.52;1.00;;;;;;;;;;4966323;28;20125;-80
2021/12/02 09:02:37;;;;;;;4.63;1.95;;;;;;;;;;4981763;28;20096;-75
2021/12/02 09:05:06;;;;;;;1.33;1.15;;;;;;;;;;4974237;28;20061;-80
2021/12/02 09:07:33;;;;;;;2.03;1.20;;;;;;;;;;4985789;28;20276;-78
2021/12/02 09:10:01;;;;;;;1.77;1.10;;;;;;;;;;4986450;28;20134;-76
2021/12/02 09:12:28;;;;;;;1.70;1.15;;;;;;;;;;4985314;28;20417;-76
2021/12/02 09:14:56;;;;;;;1.50;1.38;;;;;;;;;;4986656;28;20070;-78
2021/12/02 09:17:24;;;;;;;5.95;4.07;;;;;;;;;;4986449;28;20121;-77
2021/12/02 09:19:51;;;;;;;3.30;2.20;;;;;;;;;;4986113;28;20594;-76
2021/12/02 09:22:19;;;;;;;2.35;1.30;;;;;;;;;;4987199;28;20562;-77
2021/12/02 09:24:46;;;;;;;3.05;1.30;;;;;;;;;;4975945;28;20526;-79
2021/12/02 09:27:13;;;;;;;2.67;1.00;;;;;;;;;;4986549;28;20138;-76
2021/12/02 09:29:41;;;;;;;2.78;0.93;;;;;;;;;;4985677;28;20077;-80
2021/12/02 09:32:08;;;;;;;1.95;1.20;;;;;;;;;;4985106;28;20046;-76
2021/12/02 09:34:36;;;;;;;1.20;1.10;;;;;;;;;;4972177;28;20050;-76
2021/12/02 09:37:04;;;;;;;2.13;1.40;;;;;;;;;;4984302;28;20057;-79
2021/12/02 09:39:33;;;;;;;2.10;1.45;;;;;;;;;;4989077;28;20034;-79
2021/12/02 09:42:01;;;;;;;1.63;1.40;;;;;;;;;;4982430;28;20077;-76
2021/12/02 09:44:43;;;;;;;1.63;1.40;;;;;;;;;;4975785;28;20036;-76
2021/12/02 09:47:11;;;;;;;2.80;1.45;;;;;;;;;;4977132;28;20050;-76
2021/12/02 09:49:38;;;;;;;1.20;1.10;;;;;;;;;;4979599;28;20097;-76
2021/12/02 09:52:10;;;;;;;4.22;1.25;;;;;;;;;;4982241;28;20137;-75
2021/12/02 09:54:42;;;;;;;1.42;1.30;;;;;;;;;;4989839;28;20046;-76
2021/12/02 09:57:16;;;;;;;1.58;1.45;;;;;;;;;;4987530;28;20069;-79
2021/12/02 10:02:14;;;;;;;2.30;1.35;;;;;;;;;;4988211;28;20126;-77
2021/12/02 10:04:48;;;;;;;0.90;0.90;;;;;;;;;;4968166;28;20053;-77
2021/12/02 10:07:25;;;;;;;1.30;1.20;;;;;;;;;;4988922;28;20145;-76
2021/12/02 10:10:14;;;;;;;2.33;0.90;;;;;;;;;;4989478;28;20133;-76
2021/12/02 10:13:04;;;;;;;1.67;1.10;;;;;;;;;;4970343;28;20447;-77
2021/12/02 10:15:33;;;;;;;2.58;1.30;;;;;;;;;;4972582;28;20073;-80
2021/12/02 10:18:14;;;;;;;0.75;0.68;;;;;;;;;;4970352;28;20043;-77
2021/12/02 10:20:49;;;;;;;1.27;1.17;;;;;;;;;;4974549;28;20054;-77
2021/12/02 10:23:32;;;;;;;1.60;1.23;;;;;;;;;;4970144;28;20117;-76
2021/12/02 10:26:03;;;;;;;1.48;1.38;;;;;;;;;;4965398;28;20286;-78
2021/12/02 10:28:34;;;;;;;1.55;1.25;;;;;;;;;;4955867;28;20078;-76
2021/12/02 10:31:03;;;;;;;4.15;1.30;;;;;;;;;;4981345;28;20047;-75
2021/12/02 10:33:38;;;;;;;2.05;1.35;;;;;;;;;;4973971;28;20047;-78
2021/12/02 10:36:07;;;;;;;2.60;1.40;;;;;;;;;;4983206;28;20121;-75
2021/12/02 10:38:40;;;;;;;6.35;1.17;;;;;;;;;;4973094;28;20122;-79
2021/12/02 10:41:09;;;;;;;4.25;1.20;;;;;;;;;;4982182;28;20132;-76
2021/12/02 10:43:57;;;;;;;1.70;0.90;;;;;;;;;;4977603;28;20129;-76
2021/12/02 10:46:24;;;;;;;2.00;1.20;;;;;;;;;;4971669;28;20129;-75
2021/12/02 10:48:52;;;;;;;1.95;1.10;;;;;;;;;;4970446;28;20093;-76
2021/12/02 10:51:40;;;;;;;1.67;1.20;;;;;;;;;;4979405;28;20035;-77
2021/12/02 10:54:13;;;;;;;2.15;1.40;;;;;;;;;;5012962;23;20058;-73
2021/12/02 10:56:42;;;;;;;1.50;1.25;;;;;;;;;;4951481;28;20063;-73
2021/12/02 10:59:28;;;;;;;1.15;0.90;;;;;;;;;;4950430;28;20051;-73
2021/12/02 11:01:59;;;;;;;7.07;1.50;;;;;;;;;;4952618;28;20570;-73
2021/12/02 11:04:28;;;;;;;4.15;0.93;;;;;;;;;;4924681;28;20110;-73
2021/12/02 11:07:01;;;;;;;3.05;1.17;;;;;;;;;;4947843;28;20043;-74
2021/12/02 11:09:32;;;;;;;1.65;1.25;;;;;;;;;;4932437;28;20510;-73
2021/12/02 11:12:08;;;;;;;2.55;1.20;;;;;;;;;;4948935;28;20043;-73
2021/12/02 11:14:36;;;;;;;7.45;1.63;;;;;;;;;;4932848;28;20403;-74
2021/12/02 11:17:14;;;;;;;4.75;1.30;;;;;;;;;;4957998;28;20057;-73
2021/12/02 11:19:46;;;;;;;1.77;0.98;;;;;;;;;;4952311;28;20054;-73
2021/12/02 11:22:19;;;;;;;2.85;1.30;;;;;;;;;;4950192;28;20035;-73
2021/12/02 11:24:47;;;;;;;2.63;1.58;;;;;;;;;;4949749;28;20039;-73
2021/12/02 11:27:18;;;;;;;5.93;1.05;;;;;;;;;;4949162;28;20039;-73
2021/12/02 11:30:06;;;;;;;1.88;1.20;;;;;;;;;;4932154;28;20043;-73
2021/12/02 11:32:36;;;;;;;2.17;1.15;;;;;;;;;;4949279;28;20459;-74
2021/12/02 11:35:03;;;;;;;8.85;1.27;;;;;;;;;;4936219;28;20138;-73
2021/12/02 11:37:32;;;;;;;2.63;1.05;;;;;;;;;;4947360;28;20496;-73
2021/12/02 11:40:02;;;;;;;2.97;1.45;;;;;;;;;;4916357;28;20118;-73
2021/12/02 11:42:30;;;;;;;1.20;1.10;;;;;;;;;;4949325;28;20063;-73
2021/12/02 11:44:57;;;;;;;3.95;1.35;;;;;;;;;;4949969;28;20078;-74
2021/12/02 11:47:24;;;;;;;6.00;1.30;;;;;;;;;;4932475;28;20308;-73
2021/12/02 11:49:52;;;;;;;21.83;2.20;;;;;;;;;;4939053;28;20050;-74
2021/12/02 11:52:20;;;;;;;2.35;1.20;;;;;;;;;;4933963;28;20068;-74
2021/12/02 11:54:48;;;;;;;2.22;1.40;;;;;;;;;;4946768;28;20051;-74
2021/12/02 11:57:16;;;;;;;3.22;1.10;;;;;;;;;;4949190;28;20043;-74
2021/12/02 11:59:43;;;;;;;1.02;0.98;;;;;;;;;;4948883;28;20119;-74
2021/12/02 12:02:17;;;;;;;4.80;1.33;;;;;;;;;;4936270;28;20491;-74
2021/12/02 12:05:00;;;;;;;4.60;1.42;;;;;;;;;;4902197;29;20090;-74
2021/12/02 12:07:38;;;;;;;2.28;1.25;;;;;;;;;;4916730;28;20106;-74
2021/12/02 12:10:13;;;;;;;5.05;1.42;;;;;;;;;;4929989;29;20048;-74
2021/12/02 12:12:43;;;;;;;3.38;1.58;;;;;;;;;;4941564;28;20051;-74
2021/12/02 12:15:29;;;;;;;3.13;1.60;;;;;;;;;;4939059;28;20129;-74
2021/12/02 12:17:56;;;;;;;2.95;1.30;;;;;;;;;;4956735;28;20071;-72
2021/12/02 12:20:43;;;;;;;3.33;1.30;;;;;;;;;;4934778;28;20039;-72
2021/12/02 12:23:30;;;;;;;3.38;1.80;;;;;;;;;;4950602;28;20460;-72
2021/12/02 12:26:13;;;;;;;2.72;1.30;;;;;;;;;;4918061;29;20082;-72
2021/12/02 12:28:59;;;;;;;1.25;1.13;;;;;;;;;;4928116;29;20043;-72
2021/12/02 12:31:56;;;;;;;2.47;1.42;;;;;;;;;;4903354;29;20142;-72
2021/12/02 12:34:30;;;;;;;3.35;1.23;;;;;;;;;;4921650;29;20130;-74
2021/12/02 12:36:59;;;;;;;2.85;1.10;;;;;;;;;;4923345;29;20058;-73
2021/12/02 12:39:32;;;;;;;1.27;1.10;;;;;;;;;;4923118;29;20047;-74
2021/12/02 12:42:17;;;;;;;2.00;1.17;;;;;;;;;;4925323;29;20154;-73
2021/12/02 12:44:48;;;;;;;8.23;1.48;;;;;;;;;;4929603;29;20090;-73
2021/12/02 12:47:16;;;;;;;2.72;1.40;;;;;;;;;;4926923;29;20512;-74
2021/12/02 12:49:47;;;;;;;2.45;1.40;;;;;;;;;;4940149;29;20075;-74
2021/12/02 12:52:19;;;;;;;4.15;1.50;;;;;;;;;;4911009;29;20047;-74
2021/12/02 12:55:05;;;;;;;4.03;1.40;;;;;;;;;;4926859;29;20590;-74
2021/12/02 12:57:32;;;;;;;1.60;1.48;;;;;;;;;;4947521;28;20075;-74
2021/12/02 13:00:00;;;;;;;1.55;1.20;;;;;;;;;;4921686;28;20070;-74
2021/12/02 13:02:32;;;;;;;1.50;1.20;;;;;;;;;;4945312;28;20069;-74
2021/12/02 13:05:01;;;;;;;1.92;1.42;;;;;;;;;;4931125;28;20048;-74
2021/12/02 13:08:04;;;;;;;1.40;1.30;;;;;;;;;;4933143;28;20550;-73
2021/12/02 13:10:32;;;;;;;4.60;2.08;;;;;;;;;;4950113;28;20177;-74
2021/12/02 13:13:00;;;;;;;3.17;1.48;;;;;;;;;;4952561;28;20050;-74
2021/12/02 13:15:28;;;;;;;1.02;1.02;;;;;;;;;;4918876;28;20071;-72
2021/12/02 13:17:57;;;;;;;3.40;1.25;;;;;;;;;;4951080;28;20165;-72
2021/12/02 13:20:33;;;;;;;3.67;1.60;;;;;;;;;;4935731;28;20051;-72
2021/12/02 13:23:12;;;;;;;2.35;1.55;;;;;;;;;;4935007;28;20044;-74
2021/12/02 13:26:01;;;;;;;1.85;1.42;;;;;;;;;;4952095;28;20484;-73
2021/12/02 13:28:35;;;;;;;1.85;1.75;;;;;;;;;;4940370;28;20055;-73
2021/12/02 13:31:07;;;;;;;2.28;1.90;;;;;;;;;;4941350;28;20058;-73
2021/12/02 13:33:37;;;;;;;1.42;1.30;;;;;;;;;;4918730;29;20463;-73
2021/12/02 13:36:06;;;;;;;1.85;1.50;;;;;;;;;;4951085;28;20130;-73
2021/12/02 13:38:33;;;;;;;6.03;2.10;;;;;;;;;;4951595;28;20146;-72
2021/12/02 13:41:18;;;;;;;2.47;1.67;;;;;;;;;;4951813;28;20059;-73
2021/12/02 13:43:56;;;;;;;3.20;1.40;;;;;;;;;;4934975;28;20469;-73
2021/12/02 13:46:38;;;;;;;4.88;1.60;;;;;;;;;;4950818;28;20279;-73
2021/12/02 13:49:11;;;;;;;6.50;1.70;;;;;;;;;;4945883;29;20501;-73
2021/12/02 13:54:28;;;;;;;3.83;1.20;;;;;;;;;;4948218;28;20314;-73
2021/12/02 13:56:57;;;;;;;2.75;1.20;;;;;;;;;;4950594;28;20053;-73
2021/12/02 13:59:27;;;;;;;0.90;0.90;;;;;;;;;;4950812;28;20596;-72
2021/12/02 14:01:56;;;;;;;1.50;1.40;;;;;;;;;;4947580;28;20217;-73
2021/12/02 14:04:25;;;;;;;2.85;1.70;;;;;;;;;;4928700;29;20361;-73
2021/12/02 14:07:13;;;;;;;3.35;1.33;;;;;;;;;;4928303;29;20110;-73
2021/12/02 14:09:48;;;;;;;1.85;1.45;;;;;;;;;;4928794;29;20134;-73
2021/12/02 14:12:17;;;;;;;1.60;1.10;;;;;;;;;;4928816;29;20433;-73
2021/12/02 14:14:54;;;;;;;3.08;1.42;;;;;;;;;;4930244;29;20160;-73
2021/12/02 14:17:22;;;;;;;1.75;1.65;;;;;;;;;;4929921;29;20522;-73
2021/12/02 14:20:01;;;;;;;3.47;3.17;;;;;;;;;;4928874;29;20158;-73
2021/12/02 14:22:28;;;;;;;2.92;2.60;;;;;;;;;;4934094;29;20083;-73
2021/12/02 14:24:56;;;;;;;17.55;12.95;;;;;;;;;;4926355;29;20479;-73
2021/12/02 14:27:23;;;;;;;2.92;2.70;;;;;;;;;;4930039;29;20134;-73
2021/12/02 14:30:05;;;;;;;16.67;10.40;;;;;;;;;;4929235;29;20105;-74
2021/12/02 14:32:32;;;;;;;13.43;8.00;;;;;;;;;;4935175;29;20110;-74
2021/12/02 14:35:17;;;;;;;7.82;5.15;;;;;;;;;;4930693;29;20044;-73
2021/12/02 14:37:45;;;;;;;4.53;2.67;;;;;;;;;;4949050;28;20052;-73
2021/12/02 14:40:33;;;;;;;3.92;2.60;;;;;;;;;;4949262;29;20047;-73
2021/12/02 14:43:20;;;;;;;4.03;2.60;;;;;;;;;;4933437;29;20130;-73
2021/12/02 14:46:15;;;;;;;5.20;3.45;;;;;;;;;;4934038;29;20110;-73
2021/12/02 14:48:42;;;;;;;7.75;3.67;;;;;;;;;;4950761;28;20407;-73
2021/12/02 14:51:12;;;;;;;4.85;4.40;;;;;;;;;;4946961;29;20399;-73
2021/12/02 14:53:41;;;;;;;7.43;4.85;;;;;;;;;;4950438;29;20138;-73
2021/12/02 14:56:25;;;;;;;6.57;5.80;;;;;;;;;;4949072;29;20578;-73
2021/12/02 14:59:05;;;;;;;5.32;4.43;;;;;;;;;;4951136;28;20066;-73
2021/12/02 15:01:33;;;;;;;3.33;2.85;;;;;;;;;;4950682;29;20122;-73
2021/12/02 15:04:17;;;;;;;2.92;2.65;;;;;;;;;;4931654;29;20103;-73
2021/12/02 15:06:44;;;;;;;2.42;2.25;;;;;;;;;;4933814;29;20114;-73
2021/12/02 15:09:34;;;;;;;2.97;2.78;;;;;;;;;;4950949;29;20051;-73
2021/12/02 15:12:02;;;;;;;7.32;5.15;;;;;;;;;;4929939;29;20047;-73
2021/12/02 15:14:37;;;;;;;4.90;3.90;;;;;;;;;;4944627;28;20047;-73
2021/12/02 15:17:06;;;;;;;12.45;8.20;;;;;;;;;;4941961;28;20046;-73
2021/12/02 15:19:39;;;;;;;6.82;5.43;;;;;;;;;;4952808;28;20129;-73
2021/12/02 15:22:25;;;;;;;15.82;11.13;;;;;;;;;;4956293;28;20068;-73
2021/12/02 15:25:04;;;;;;;16.85;11.50;;;;;;;;;;4952336;28;20046;-73
2021/12/02 15:27:31;;;;;;;18.30;11.45;;;;;;;;;;4949986;28;20066;-73
2021/12/02 15:29:59;;;;;;;18.35;12.30;;;;;;;;;;4948797;29;20174;-73
2021/12/02 15:32:28;;;;;;;11.23;8.27;;;;;;;;;;4934571;29;20057;-73
2021/12/02 15:34:55;;;;;;;17.05;10.77;;;;;;;;;;4937818;28;20189;-73
2021/12/02 15:37:23;;;;;;;29.17;19.50;;;;;;;;;;4948121;28;20154;-73
2021/12/02 15:39:50;;;;;;;34.05;20.48;;;;;;;;;;4945596;28;20151;-73
2021/12/02 15:42:18;;;;;;;48.47;27.40;;;;;;;;;;4950285;28;20468;-73
2021/12/02 15:44:45;;;;;;;56.63;30.77;;;;;;;;;;4959076;28;20031;-73
2021/12/02 15:47:15;;;;;;;54.63;31.50;;;;;;;;;;4930803;28;20134;-73
2021/12/02 15:49:53;;;;;;;44.42;27.60;;;;;;;;;;4949102;28;20097;-73
2021/12/02 15:52:20;;;;;;;30.13;21.48;;;;;;;;;;4949222;28;20039;-73
2021/12/02 15:54:50;;;;;;;20.85;15.30;;;;;;;;;;4949501;28;20081;-73
2021/12/02 15:57:18;;;;;;;15.02;12.30;;;;;;;;;;4930665;28;20127;-73
2021/12/02 15:59:45;;;;;;;21.27;14.93;;;;;;;;;;4947624;28;20047;-73
2021/12/02 16:02:24;;;;;;;20.60;12.32;;;;;;;;;;4933398;28;20392;-73
2021/12/02 16:04:59;;;;;;;16.95;13.10;;;;;;;;;;4947552;28;20063;-73
2021/12/02 16:07:30;;;;;;;19.55;16.27;;;;;;;;;;4947773;28;20492;-73
2021/12/02 16:10:16;;;;;;;21.20;15.98;;;;;;;;;;4948558;28;20280;-73
2021/12/02 16:12:43;;;;;;;22.27;16.42;;;;;;;;;;4945727;28;20126;-73
2021/12/02 16:15:13;;;;;;;29.77;18.00;;;;;;;;;;4939187;29;20745;-73
2021/12/02 16:17:40;;;;;;;28.58;18.05;;;;;;;;;;4943979;28;20043;-73
2021/12/02 16:20:10;;;;;;;18.58;13.88;;;;;;;;;;4986426;23;20054;-76
2021/12/02 16:22:37;;;;;;;20.75;14.65;;;;;;;;;;4981606;28;20038;-76
2021/12/02 16:25:05;;;;;;;20.90;15.70;;;;;;;;;;4983804;28;20221;-75
2021/12/02 16:27:33;;;;;;;18.20;13.32;;;;;;;;;;4979186;28;20479;-76
2021/12/02 16:30:00;;;;;;;16.17;13.00;;;;;;;;;;4963432;28;20042;-75
2021/12/02 16:32:30;;;;;;;18.90;13.50;;;;;;;;;;4937577;28;20142;-76
2021/12/02 16:34:58;;;;;;;15.98;12.23;;;;;;;;;;4992492;23;20030;-77
2021/12/02 16:37:26;;;;;;;30.75;18.60;;;;;;;;;;4941736;28;20551;-75
2021/12/02 16:40:01;;;;;;;21.27;13.20;;;;;;;;;;4942287;29;20043;-74
2021/12/02 16:42:29;;;;;;;7.97;6.95;;;;;;;;;;4946874;28;20048;-74
2021/12/02 16:44:56;;;;;;;8.95;7.32;;;;;;;;;;4932935;29;20523;-76
2021/12/02 16:47:23;;;;;;;9.82;7.43;;;;;;;;;;4942345;29;20039;-75
2021/12/02 16:49:51;;;;;;;9.80;6.22;;;;;;;;;;4960979;23;20038;-84
2021/12/02 16:52:19;;;;;;;8.60;6.30;;;;;;;;;;4971996;28;20039;-83
2021/12/02 16:54:47;;;;;;;8.25;7.38;;;;;;;;;;4953483;28;20047;-85
2021/12/02 16:57:15;;;;;;;11.02;8.60;;;;;;;;;;5028083;23;20050;-76
2021/12/02 16:59:43;;;;;;;10.65;7.10;;;;;;;;;;4952401;28;20505;-74
2021/12/02 17:02:10;;;;;;;6.65;5.97;;;;;;;;;;4981753;23;20092;-73
2021/12/02 17:04:38;;;;;;;12.15;8.32;;;;;;;;;;4966080;28;20081;-73
2021/12/02 17:07:06;;;;;;;8.68;7.80;;;;;;;;;;4986499;28;20140;-72
2021/12/02 17:09:33;;;;;;;9.77;7.50;;;;;;;;;;4987095;28;20073;-72
2021/12/02 17:12:03;;;;;;;7.75;6.82;;;;;;;;;;4983288;28;20105;-72
2021/12/02 17:14:33;;;;;;;8.07;7.28;;;;;;;;;;4988208;28;20108;-72
2021/12/02 17:17:00;;;;;;;10.77;9.27;;;;;;;;;;4998464;28;20038;-72
2021/12/02 17:19:28;;;;;;;12.63;8.20;;;;;;;;;;4986182;28;20050;-72
2021/12/02 17:21:56;;;;;;;11.85;9.98;;;;;;;;;;4970643;28;20498;-72
2021/12/02 17:24:27;;;;;;;10.82;9.57;;;;;;;;;;4988165;28;20449;-72
2021/12/02 17:26:57;;;;;;;14.25;11.25;;;;;;;;;;4974386;28;20197;-72
2021/12/02 17:29:27;;;;;;;11.18;8.35;;;;;;;;;;4981821;23;20051;-76
2021/12/02 17:31:55;;;;;;;11.90;9.35;;;;;;;;;;4975104;28;20093;-75
2021/12/02 17:34:23;;;;;;;12.38;10.82;;;;;;;;;;4956667;28;20055;-76
2021/12/02 17:36:50;;;;;;;15.55;13.18;;;;;;;;;;4962035;28;20039;-74
2021/12/02 17:39:17;;;;;;;17.63;14.63;;;;;;;;;;4968301;28;20053;-76
2021/12/02 17:41:45;;;;;;;17.15;13.85;;;;;;;;;;4967519;28;20046;-74
2021/12/02 17:44:13;;;;;;;19.58;16.38;;;;;;;;;;4965904;28;20047;-74
2021/12/02 17:46:41;;;;;;;16.67;13.65;;;;;;;;;;4982075;23;20051;-81
2021/12/02 17:49:08;;;;;;;18.90;13.82;;;;;;;;;;4965331;28;20047;-82
2021/12/02 17:51:36;;;;;;;15.88;13.55;;;;;;;;;;4981866;28;20451;-82
2021/12/02 17:54:04;;;;;;;18.10;15.23;;;;;;;;;;4971621;28;20070;-82
2021/12/02 17:56:32;;;;;;;13.65;10.45;;;;;;;;;;4977563;28;20034;-82
2021/12/02 17:59:00;;;;;;;11.27;10.18;;;;;;;;;;5033615;23;20035;-75
2021/12/02 18:01:28;;;;;;;9.52;7.97;;;;;;;;;;4984131;28;20057;-74
2021/12/02 18:04:03;;;;;;;6.88;6.25;;;;;;;;;;4981253;28;20227;-75
2021/12/02 18:06:35;;;;;;;6.75;5.00;;;;;;;;;;4966689;28;20042;-77
2021/12/02 18:09:03;;;;;;;4.10;3.80;;;;;;;;;;4980965;28;20108;-74
2021/12/02 18:11:30;;;;;;;6.57;4.13;;;;;;;;;;4981234;28;20133;-75
2021/12/02 18:13:58;;;;;;;5.47;4.60;;;;;;;;;;4986670;28;20092;-76
2021/12/02 18:16:25;;;;;;;4.20;3.85;;;;;;;;;;4962892;28;20045;-75
2021/12/02 18:18:53;;;;;;;4.25;3.80;;;;;;;;;;4954453;28;20134;-76
2021/12/02 18:21:21;;;;;;;4.57;4.18;;;;;;;;;;4981093;28;20626;-76
2021/12/02 18:23:50;;;;;;;3.72;3.42;;;;;;;;;;5042956;23;21482;-78
2021/12/02 18:26:33;;;;;;;6.32;3.67;;;;;;;;;;5002859;28;20093;-79
2021/12/02 18:29:01;;;;;;;4.93;3.83;;;;;;;;;;5005169;28;20133;-78
2021/12/02 18:31:36;;;;;;;3.78;3.42;;;;;;;;;;5006310;28;20120;-80
2021/12/02 18:34:16;;;;;;;3.35;3.03;;;;;;;;;;4989131;28;20159;-77
2021/12/02 18:36:44;;;;;;;4.00;3.60;;;;;;;;;;5000814;28;20082;-76
2021/12/02 18:39:14;;;;;;;5.53;3.70;;;;;;;;;;4972231;28;20534;-77
2021/12/02 18:41:42;;;;;;;2.63;2.53;;;;;;;;;;4990655;28;20045;-77
2021/12/02 18:44:09;;;;;;;3.67;3.35;;;;;;;;;;5003680;28;20038;-77